Time;durP1;ratioP1;P1;durP2;ratioP2;P2;SDS_P1;SDS_P2;PMS_P1;PMS_P2;Temp;Humidity;BMP_temperature;BMP_pressure;BME280_temperature;BME280_humidity;BME280_pressure;Samples;Min_cycle;Max_cycle;Signal;HPM_P1;HPM_P2
2022/01/04 00:01:20;;;;;;;7.50;7.17;;;8.30;99.90;;;;;;5013652;28;20307;-67
2022/01/04 00:03:46;;;;;;;7.00;6.70;;;8.30;99.90;;;;;;5013739;28;20171;-66
2022/01/04 00:06:12;;;;;;;7.03;6.73;;;8.30;99.90;;;;;;5013306;28;20180;-66
2022/01/04 00:08:38;;;;;;;6.60;6.30;;;8.20;99.90;;;;;;5013715;28;20176;-66
2022/01/04 00:11:17;;;;;;;6.77;6.37;;;8.20;99.90;;;;;;5011417;28;20282;-66
2022/01/04 00:13:43;;;;;;;6.63;6.33;;;8.20;99.90;;;;;;5013123;28;20176;-66
2022/01/04 00:16:10;;;;;;;6.47;6.17;;;8.20;99.90;;;;;;5013343;28;20176;-65
2022/01/04 00:18:37;;;;;;;6.47;6.17;;;8.20;99.90;;;;;;5013750;28;20203;-67
2022/01/04 00:21:03;;;;;;;6.13;5.83;;;8.20;99.90;;;;;;5013758;28;20235;-66
2022/01/04 00:23:30;;;;;;;6.10;5.90;;;8.20;99.90;;;;;;5013191;28;20207;-67
2022/01/04 00:25:56;;;;;;;6.37;6.07;;;8.20;99.90;;;;;;5013513;28;20246;-66
2022/01/04 00:28:21;;;;;;;6.57;6.27;;;8.10;99.90;;;;;;5013132;28;20176;-66
2022/01/04 00:30:47;;;;;;;6.47;6.17;;;8.10;99.90;;;;;;5013342;28;20172;-66
2022/01/04 00:33:16;;;;;;;6.80;6.40;;;8.20;99.90;;;;;;5012833;28;20164;-65
2022/01/04 00:35:43;;;;;;;7.00;6.70;;;8.10;99.90;;;;;;5011697;28;20196;-65
2022/01/04 00:38:08;;;;;;;7.10;6.80;;;8.10;99.90;;;;;;5012729;28;20180;-66
2022/01/04 00:40:35;;;;;;;7.10;6.70;;;8.10;99.90;;;;;;5012662;28;20200;-65
2022/01/04 00:43:00;;;;;;;7.30;6.97;;;8.20;99.90;;;;;;5012562;28;20246;-67
2022/01/04 00:45:31;;;;;;;7.00;6.70;;;8.10;99.90;;;;;;5012776;28;20223;-65
2022/01/04 00:50:23;;;;;;;7.93;7.60;;;8.10;99.90;;;;;;5012405;28;20203;-65
2022/01/04 00:52:50;;;;;;;8.83;8.43;;;8.10;99.90;;;;;;5012576;28;20271;-66
2022/01/04 00:55:16;;;;;;;9.70;9.10;;;8.00;99.90;;;;;;5012886;28;20682;-68
2022/01/04 00:57:42;;;;;;;8.93;8.43;;;8.00;99.90;;;;;;5012972;28;20243;-68
2022/01/04 01:00:10;;;;;;;8.00;7.63;;;8.10;99.90;;;;;;5012420;28;20626;-67
2022/01/04 01:02:36;;;;;;;8.20;7.80;;;8.10;99.90;;;;;;5012491;28;20200;-68
2022/01/04 01:05:02;;;;;;;8.60;8.23;;;8.10;99.90;;;;;;5012281;28;20188;-67
2022/01/04 01:07:28;;;;;;;8.43;8.03;;;8.10;99.90;;;;;;5012626;28;20179;-67
2022/01/04 01:10:18;;;;;;;7.60;7.30;;;8.10;99.90;;;;;;5012255;28;20176;-67
2022/01/04 01:12:39;;;;;;;7.27;6.97;;;8.10;99.90;;;;;;5011192;28;20719;-68
2022/01/04 01:15:06;;;;;;;7.00;6.70;;;8.10;99.90;;;;;;5012123;28;20204;-65
2022/01/04 01:17:32;;;;;;;8.50;8.00;;;8.20;99.90;;;;;;5012440;28;20538;-65
2022/01/04 01:19:58;;;;;;;8.43;8.10;;;8.10;99.90;;;;;;5011959;28;20172;-67
2022/01/04 01:22:24;;;;;;;7.73;7.43;;;8.10;99.90;;;;;;5011328;28;20203;-66
2022/01/04 01:24:50;;;;;;;7.83;7.43;;;8.10;99.90;;;;;;5011811;28;20223;-66
2022/01/04 01:27:16;;;;;;;7.87;7.57;;;8.10;99.90;;;;;;5012115;28;20576;-66
2022/01/04 01:29:42;;;;;;;8.33;7.93;;;8.10;99.90;;;;;;5012029;28;20194;-66
2022/01/04 01:32:07;;;;;;;8.40;8.03;;;8.10;99.90;;;;;;5011667;28;20179;-66
2022/01/04 01:34:33;;;;;;;8.77;8.37;;;8.00;99.90;;;;;;5011762;28;20204;-66
2022/01/04 01:36:59;;;;;;;8.77;8.30;;;8.00;99.90;;;;;;5012105;28;20645;-66
2022/01/04 01:39:24;;;;;;;7.63;7.30;;;8.00;99.90;;;;;;5011710;28;20176;-66
2022/01/04 01:41:50;;;;;;;7.50;7.10;;;8.00;99.90;;;;;;5011708;28;20191;-66
2022/01/04 01:44:16;;;;;;;6.37;6.07;;;8.00;99.90;;;;;;5011355;28;20214;-66
2022/01/04 01:46:41;;;;;;;6.53;6.23;;;7.90;99.90;;;;;;5012056;28;20172;-66
2022/01/04 01:49:07;;;;;;;6.73;6.43;;;7.90;99.90;;;;;;5011525;28;20691;-66
2022/01/04 01:51:33;;;;;;;6.83;6.53;;;7.90;99.90;;;;;;5011961;28;20200;-66
2022/01/04 01:54:00;;;;;;;7.27;6.97;;;7.90;99.90;;;;;;5011017;28;20680;-66
2022/01/04 01:56:26;;;;;;;8.27;7.77;;;7.90;99.90;;;;;;5012074;28;20182;-66
2022/01/04 01:58:53;;;;;;;8.00;7.70;;;7.90;99.90;;;;;;5011758;28;20653;-66
2022/01/04 02:01:19;;;;;;;8.00;7.60;;;7.90;99.90;;;;;;5011679;28;20212;-66
2022/01/04 02:03:45;;;;;;;7.53;7.23;;;7.90;99.90;;;;;;5009868;28;20602;-66
2022/01/04 02:06:10;;;;;;;8.50;8.10;;;7.90;99.90;;;;;;5011800;28;20259;-66
2022/01/04 02:08:36;;;;;;;7.70;7.40;;;8.00;99.90;;;;;;5011590;28;20757;-66
2022/01/04 02:11:03;;;;;;;7.73;7.43;;;7.90;99.90;;;;;;5011375;28;20246;-66
2022/01/04 02:13:29;;;;;;;6.50;6.20;;;7.90;99.90;;;;;;5009981;28;20214;-66
2022/01/04 02:15:57;;;;;;;7.00;6.70;;;7.90;99.90;;;;;;5009789;28;20223;-66
2022/01/04 02:18:23;;;;;;;7.10;6.80;;;7.90;99.90;;;;;;5011627;28;20671;-66
2022/01/04 02:20:49;;;;;;;7.33;7.03;;;8.00;99.90;;;;;;5011345;28;20203;-66
2022/01/04 02:23:15;;;;;;;7.23;6.93;;;7.90;99.90;;;;;;5011400;28;20702;-66
2022/01/04 02:25:41;;;;;;;7.63;7.10;;;7.90;99.90;;;;;;5011264;28;20230;-66
2022/01/04 02:28:07;;;;;;;7.03;6.73;;;7.90;99.90;;;;;;5011414;28;20556;-66
2022/01/04 02:30:33;;;;;;;6.80;6.50;;;7.90;99.90;;;;;;5009797;28;20700;-66
2022/01/04 02:33:01;;;;;;;7.03;6.73;;;7.90;99.90;;;;;;5011532;28;20168;-66
2022/01/04 02:35:30;;;;;;;7.40;6.80;;;7.90;99.90;;;;;;5012573;28;20283;-67
2022/01/04 02:37:58;;;;;;;7.60;7.30;;;7.80;99.90;;;;;;5015320;28;20172;-66
2022/01/04 02:40:25;;;;;;;7.43;7.13;;;7.80;99.90;;;;;;5014871;28;20176;-66
2022/01/04 02:42:51;;;;;;;6.93;6.63;;;7.80;99.90;;;;;;5015216;28;20185;-66
2022/01/04 02:45:17;;;;;;;7.40;6.97;;;7.80;99.90;;;;;;5014862;28;20577;-66
2022/01/04 02:47:42;;;;;;;6.73;6.43;;;7.80;99.90;;;;;;5014014;28;20172;-66
2022/01/04 02:50:10;;;;;;;6.83;6.53;;;7.80;99.90;;;;;;5013674;28;20658;-66
2022/01/04 02:52:38;;;;;;;7.33;6.93;;;7.80;99.90;;;;;;5014907;28;20176;-66
2022/01/04 02:55:07;;;;;;;7.53;7.23;;;7.80;99.90;;;;;;5014777;28;20214;-67
2022/01/04 02:57:33;;;;;;;7.77;7.27;;;7.80;99.90;;;;;;5015096;28;20658;-67
2022/01/04 02:59:59;;;;;;;7.57;7.17;;;7.80;99.90;;;;;;5014746;28;20270;-66
2022/01/04 03:02:25;;;;;;;8.00;7.50;;;7.90;99.90;;;;;;5013093;28;20697;-67
2022/01/04 03:04:51;;;;;;;7.60;7.20;;;7.90;99.90;;;;;;5014846;28;20210;-67
2022/01/04 03:07:16;;;;;;;7.40;7.10;;;7.90;99.90;;;;;;5015092;28;20533;-68
2022/01/04 03:09:43;;;;;;;7.10;6.70;;;7.80;99.90;;;;;;5014773;28;20187;-68
2022/01/04 03:12:09;;;;;;;6.40;6.10;;;7.80;99.90;;;;;;5014606;28;20187;-68
2022/01/04 03:14:35;;;;;;;6.90;6.60;;;7.80;99.90;;;;;;5013200;28;20204;-67
2022/01/04 03:17:01;;;;;;;7.00;6.60;;;7.80;99.90;;;;;;5014758;28;20725;-68
2022/01/04 03:19:26;;;;;;;6.83;6.53;;;7.80;99.90;;;;;;5013295;28;20468;-68
2022/01/04 03:21:52;;;;;;;6.70;6.40;;;7.80;99.90;;;;;;5014937;28;20200;-68
2022/01/04 03:24:18;;;;;;;6.90;6.30;;;7.80;99.90;;;;;;5012843;28;20196;-67
2022/01/04 03:26:43;;;;;;;6.40;6.10;;;7.80;99.90;;;;;;5015004;28;20169;-67
2022/01/04 03:29:11;;;;;;;6.40;6.20;;;7.80;99.90;;;;;;5014588;28;20179;-67
2022/01/04 03:31:38;;;;;;;8.50;6.50;;;7.80;99.90;;;;;;5014921;28;20204;-67
2022/01/04 03:34:04;;;;;;;6.70;6.40;;;7.80;99.90;;;;;;5014142;28;20259;-67
2022/01/04 03:36:30;;;;;;;6.53;6.23;;;7.80;99.90;;;;;;5013351;28;20230;-67
2022/01/04 03:38:56;;;;;;;6.33;6.03;;;7.80;99.90;;;;;;5014213;28;20168;-66
2022/01/04 03:41:24;;;;;;;7.07;6.53;;;7.90;99.90;;;;;;5014598;28;20287;-67
2022/01/04 03:43:50;;;;;;;7.10;6.80;;;7.90;99.90;;;;;;5014007;28;20176;-68
2022/01/04 03:46:17;;;;;;;7.10;6.50;;;8.00;99.90;;;;;;5013393;28;20168;-64
2022/01/04 03:48:43;;;;;;;6.73;6.33;;;8.00;99.90;;;;;;5012804;28;20173;-68
2022/01/04 03:51:09;;;;;;;6.37;6.07;;;8.00;99.90;;;;;;5014173;28;20167;-67
2022/01/04 03:53:35;;;;;;;6.77;6.47;;;7.90;99.90;;;;;;5013882;28;20247;-68
2022/01/04 03:56:01;;;;;;;7.10;6.40;;;7.90;99.90;;;;;;5013891;28;20247;-68
2022/01/04 03:58:27;;;;;;;7.23;6.93;;;7.90;99.90;;;;;;5013328;28;20202;-67
2022/01/04 04:00:53;;;;;;;6.40;6.10;;;7.90;99.90;;;;;;5014210;28;20291;-68
2022/01/04 04:03:19;;;;;;;6.83;6.53;;;7.80;99.90;;;;;;5014031;28;20172;-67
2022/01/04 04:05:44;;;;;;;7.23;6.93;;;7.80;99.90;;;;;;5014208;28;20211;-67
2022/01/04 04:08:10;;;;;;;7.10;6.70;;;7.80;99.90;;;;;;5013583;28;20637;-68
2022/01/04 04:10:36;;;;;;;6.70;6.40;;;7.80;99.90;;;;;;5013728;28;20403;-67
2022/01/04 04:13:02;;;;;;;6.80;6.43;;;7.90;99.90;;;;;;5013911;28;20709;-67
2022/01/04 04:15:28;;;;;;;7.87;7.27;;;7.80;99.90;;;;;;5013700;28;20558;-68
2022/01/04 04:17:54;;;;;;;9.80;6.90;;;7.90;99.90;;;;;;5013983;28;20247;-68
2022/01/04 04:20:20;;;;;;;7.37;6.97;;;7.80;99.90;;;;;;5013600;28;20543;-67
2022/01/04 04:22:46;;;;;;;6.73;6.43;;;7.90;99.90;;;;;;5013375;28;20669;-66
2022/01/04 04:25:12;;;;;;;6.93;6.33;;;7.90;99.90;;;;;;5012947;28;20226;-66
2022/01/04 04:27:38;;;;;;;6.67;6.37;;;7.90;99.90;;;;;;5013314;28;20196;-66
2022/01/04 04:30:05;;;;;;;6.97;6.57;;;7.90;99.90;;;;;;5012961;28;20651;-67
2022/01/04 04:32:31;;;;;;;6.40;6.10;;;7.90;99.90;;;;;;5012761;28;20673;-67
2022/01/04 04:34:57;;;;;;;6.93;6.40;;;7.90;99.90;;;;;;5012872;28;20196;-66
2022/01/04 04:37:23;;;;;;;7.07;6.67;;;7.90;99.90;;;;;;5013100;28;20206;-66
2022/01/04 04:39:49;;;;;;;6.63;6.33;;;8.00;99.90;;;;;;5012948;28;20267;-66
2022/01/04 04:42:15;;;;;;;6.43;6.13;;;7.90;99.90;;;;;;5012427;28;20482;-66
2022/01/04 04:44:40;;;;;;;7.13;6.77;;;7.90;99.90;;;;;;5012788;28;20196;-66
2022/01/04 04:47:06;;;;;;;6.83;6.33;;;7.90;99.90;;;;;;5012587;28;20543;-66
2022/01/04 04:49:32;;;;;;;6.83;6.43;;;7.90;99.90;;;;;;5011560;28;20247;-67
2022/01/04 04:51:59;;;;;;;6.50;6.20;;;7.90;99.90;;;;;;5011080;28;20195;-66
2022/01/04 04:54:26;;;;;;;6.63;6.33;;;7.90;99.90;;;;;;5012484;28;20554;-68
2022/01/04 04:56:51;;;;;;;6.63;6.33;;;7.90;99.90;;;;;;5012559;28;20191;-67
2022/01/04 04:59:17;;;;;;;6.50;6.10;;;7.90;99.90;;;;;;5012630;28;20195;-68
2022/01/04 05:01:43;;;;;;;6.70;6.40;;;7.90;99.90;;;;;;5012782;28;20594;-68
2022/01/04 05:04:08;;;;;;;6.70;6.40;;;7.80;99.90;;;;;;5012194;28;20212;-67
2022/01/04 05:06:34;;;;;;;6.17;5.87;;;7.80;99.90;;;;;;5012820;28;20168;-67
2022/01/04 05:09:00;;;;;;;6.40;6.10;;;7.80;99.90;;;;;;5012546;28;20666;-68
2022/01/04 05:11:26;;;;;;;5.80;5.60;;;7.70;99.90;;;;;;5012687;28;20430;-67
2022/01/04 05:13:52;;;;;;;6.27;5.90;;;7.60;99.90;;;;;;5011659;28;20203;-68
2022/01/04 05:16:17;;;;;;;6.30;6.00;;;7.60;99.90;;;;;;5012665;28;20176;-68
2022/01/04 05:18:43;;;;;;;6.47;6.17;;;7.60;99.90;;;;;;5012009;28;20660;-68
2022/01/04 05:21:09;;;;;;;7.50;6.77;;;7.70;99.90;;;;;;5012560;28;20206;-67
2022/01/04 05:23:34;;;;;;;6.70;6.40;;;7.60;99.90;;;;;;5012195;28;20184;-67
2022/01/04 05:26:00;;;;;;;6.40;6.10;;;7.70;99.90;;;;;;5010984;28;20203;-67
2022/01/04 05:28:26;;;;;;;6.60;6.30;;;7.70;99.90;;;;;;5012376;28;20184;-68
2022/01/04 05:30:51;;;;;;;6.43;6.13;;;7.70;99.90;;;;;;5012533;28;20180;-67
2022/01/04 05:33:17;;;;;;;6.47;6.17;;;7.70;99.90;;;;;;5011873;28;20180;-67
2022/01/04 05:35:43;;;;;;;6.07;5.80;;;7.70;99.90;;;;;;5012398;28;20242;-67
2022/01/04 05:38:09;;;;;;;6.33;6.03;;;7.70;99.90;;;;;;5012044;28;20195;-66
2022/01/04 05:40:34;;;;;;;6.50;6.20;;;7.70;99.90;;;;;;5012227;28;20187;-68
2022/01/04 05:43:01;;;;;;;6.30;6.00;;;7.70;99.90;;;;;;5011702;28;20176;-67
2022/01/04 05:45:28;;;;;;;6.50;6.10;;;7.70;99.90;;;;;;5012286;28;20200;-66
2022/01/04 05:47:54;;;;;;;6.63;6.27;;;7.70;99.90;;;;;;5011511;28;20176;-66
2022/01/04 05:50:19;;;;;;;6.50;6.20;;;7.70;99.90;;;;;;4994439;28;20211;-66
2022/01/04 05:52:45;;;;;;;6.90;6.50;;;7.80;99.90;;;;;;4991838;28;20643;-67
2022/01/04 05:55:11;;;;;;;7.70;7.00;;;7.80;99.90;;;;;;5001265;28;20223;-66
2022/01/04 05:57:36;;;;;;;7.13;6.63;;;7.80;99.90;;;;;;5012144;28;20255;-66
2022/01/04 06:00:04;;;;;;;6.97;6.47;;;7.80;99.90;;;;;;5011736;28;20180;-66
2022/01/04 06:02:30;;;;;;;7.33;6.83;;;7.90;99.90;;;;;;5010106;28;20287;-66
2022/01/04 06:04:55;;;;;;;6.97;6.57;;;7.90;99.90;;;;;;5012053;28;20299;-66
2022/01/04 06:07:21;;;;;;;7.50;7.10;;;7.90;99.90;;;;;;5011950;28;20432;-66
2022/01/04 06:09:49;;;;;;;7.83;7.23;;;7.90;99.90;;;;;;5015271;28;20234;-66
2022/01/04 06:15:01;;;;;;;7.37;6.97;;;7.90;99.90;;;;;;5018267;28;20298;-66
2022/01/04 06:17:39;;;;;;;7.47;6.97;;;7.90;99.90;;;;;;5018367;28;20176;-66
2022/01/04 06:20:07;;;;;;;7.73;7.23;;;7.90;99.90;;;;;;5017853;28;20187;-66
2022/01/04 06:22:33;;;;;;;7.03;6.63;;;7.90;99.90;;;;;;5017566;28;20677;-66
2022/01/04 06:24:58;;;;;;;7.27;6.87;;;7.80;99.90;;;;;;5016849;28;20230;-66
2022/01/04 06:27:25;;;;;;;7.40;7.00;;;7.90;99.90;;;;;;5018022;28;20192;-66
2022/01/04 06:29:50;;;;;;;7.63;7.13;;;7.90;99.90;;;;;;5018215;28;20179;-66
2022/01/04 06:32:16;;;;;;;7.00;6.60;;;7.90;99.90;;;;;;5016283;28;20183;-66
2022/01/04 06:34:43;;;;;;;7.27;6.87;;;7.90;99.90;;;;;;5017951;28;20200;-66
2022/01/04 06:37:10;;;;;;;7.60;7.10;;;7.90;99.90;;;;;;5017691;28;20195;-66
2022/01/04 06:39:36;;;;;;;7.10;6.70;;;7.90;99.90;;;;;;5018050;28;20182;-66
2022/01/04 06:42:02;;;;;;;7.10;6.70;;;7.80;99.90;;;;;;5017414;28;20570;-66
2022/01/04 06:44:28;;;;;;;7.83;7.43;;;7.80;99.90;;;;;;5017754;28;20615;-66
2022/01/04 06:46:54;;;;;;;7.53;7.03;;;7.80;99.90;;;;;;5017581;28;20187;-66
2022/01/04 06:49:20;;;;;;;6.83;6.43;;;7.80;99.90;;;;;;5017877;28;20226;-68
2022/01/04 06:51:48;;;;;;;8.60;7.87;;;7.90;99.90;;;;;;5017610;28;20187;-68
2022/01/04 06:54:16;;;;;;;7.83;7.33;;;7.90;99.90;;;;;;5017876;28;20223;-67
2022/01/04 06:56:42;;;;;;;10.10;9.20;;;7.90;99.90;;;;;;5017517;28;20180;-66
2022/01/04 06:59:08;;;;;;;10.00;9.20;;;7.90;99.90;;;;;;5018109;28;20176;-69
2022/01/04 07:01:35;;;;;;;9.40;8.60;;;7.90;99.90;;;;;;5017689;28;20216;-65
2022/01/04 07:04:00;;;;;;;8.47;7.87;;;7.90;99.90;;;;;;5017501;28;20203;-70
2022/01/04 07:06:26;;;;;;;8.90;8.10;;;7.90;99.90;;;;;;5017553;28;20180;-65
2022/01/04 07:08:52;;;;;;;8.90;8.20;;;7.90;99.90;;;;;;5017941;28;20172;-70
2022/01/04 07:11:18;;;;;;;9.27;8.60;;;7.90;99.90;;;;;;5017674;28;20195;-67
2022/01/04 07:13:44;;;;;;;9.43;8.17;;;7.80;99.90;;;;;;5016111;28;20187;-66
2022/01/04 07:16:10;;;;;;;9.03;8.37;;;7.80;99.90;;;;;;5017629;28;20195;-69
2022/01/04 07:18:36;;;;;;;8.70;8.13;;;7.80;99.90;;;;;;5017566;28;20180;-67
2022/01/04 07:21:02;;;;;;;8.57;7.87;;;7.80;99.90;;;;;;5014541;28;20234;-67
2022/01/04 07:23:28;;;;;;;8.90;8.30;;;7.70;99.90;;;;;;5014804;28;20179;-68
2022/01/04 07:25:54;;;;;;;8.47;7.97;;;7.70;99.90;;;;;;5014527;28;20204;-68
2022/01/04 07:28:20;;;;;;;8.77;8.17;;;7.80;99.90;;;;;;5013137;28;20184;-66
2022/01/04 07:30:46;;;;;;;8.77;8.10;;;7.80;99.90;;;;;;5014457;28;20254;-66
2022/01/04 07:33:12;;;;;;;7.83;7.33;;;7.80;99.90;;;;;;5014326;28;20184;-68
2022/01/04 07:35:38;;;;;;;8.70;8.10;;;7.80;99.90;;;;;;5014083;28;20211;-68
2022/01/04 07:38:04;;;;;;;9.00;8.40;;;7.90;99.90;;;;;;5012840;28;20180;-68
2022/01/04 07:40:29;;;;;;;9.07;8.27;;;8.00;99.90;;;;;;5014241;28;20645;-67
2022/01/04 07:42:59;;;;;;;10.47;8.20;;;8.00;99.90;;;;;;5014048;28;20546;-67
2022/01/04 07:45:30;;;;;;;8.70;8.10;;;8.00;99.90;;;;;;5013962;28;20291;-68
2022/01/04 07:47:56;;;;;;;10.47;8.67;;;8.00;99.90;;;;;;5014140;28;20177;-68
2022/01/04 07:50:21;;;;;;;9.70;9.00;;;8.00;99.90;;;;;;5014057;28;20211;-68
2022/01/04 07:52:47;;;;;;;9.53;8.83;;;8.00;99.90;;;;;;5013848;28;20216;-68
2022/01/04 07:55:13;;;;;;;9.43;8.73;;;8.00;99.90;;;;;;5015071;28;20291;-67
2022/01/04 07:57:40;;;;;;;9.43;8.83;;;7.90;99.90;;;;;;5015733;28;20184;-68
2022/01/04 08:00:07;;;;;;;9.80;8.90;;;7.90;99.90;;;;;;5014936;28;20531;-68
2022/01/04 08:02:32;;;;;;;10.20;9.23;;;7.80;99.90;;;;;;5015563;28;20693;-68
2022/01/04 08:04:58;;;;;;;11.27;9.60;;;7.90;99.90;;;;;;5015457;28;20196;-68
2022/01/04 08:07:24;;;;;;;12.20;11.00;;;7.80;99.90;;;;;;5016235;28;20173;-68
2022/01/04 08:09:49;;;;;;;10.23;9.27;;;7.80;99.90;;;;;;5012881;28;20187;-67
2022/01/04 08:12:15;;;;;;;12.57;9.50;;;7.80;99.90;;;;;;5014452;28;20286;-66
2022/01/04 08:14:40;;;;;;;10.03;9.23;;;7.80;99.90;;;;;;5012703;28;20526;-68
2022/01/04 08:17:06;;;;;;;9.20;8.60;;;7.80;99.90;;;;;;5013523;28;20211;-67
2022/01/04 08:19:32;;;;;;;10.57;9.60;;;7.80;99.90;;;;;;5013134;28;20191;-67
2022/01/04 08:21:57;;;;;;;10.13;9.13;;;7.80;99.90;;;;;;5013057;28;20200;-66
2022/01/04 08:24:23;;;;;;;11.60;10.20;;;7.80;99.90;;;;;;5012052;28;20403;-67
2022/01/04 08:26:48;;;;;;;12.20;11.00;;;7.70;99.90;;;;;;5013511;28;20251;-67
2022/01/04 08:29:14;;;;;;;10.73;9.83;;;7.70;99.90;;;;;;5012044;28;20180;-67
2022/01/04 08:31:39;;;;;;;10.00;9.20;;;7.70;99.90;;;;;;5013282;28;20275;-67
2022/01/04 08:34:05;;;;;;;9.07;8.33;;;7.70;99.90;;;;;;5012433;28;20480;-67
2022/01/04 08:36:31;;;;;;;9.40;8.63;;;7.70;99.90;;;;;;5013179;28;20634;-67
2022/01/04 08:38:57;;;;;;;10.03;8.87;;;7.70;99.90;;;;;;5013285;28;20181;-66
2022/01/04 08:41:22;;;;;;;9.37;8.67;;;7.60;99.90;;;;;;5012046;28;20540;-68
2022/01/04 08:43:48;;;;;;;9.27;8.60;;;7.70;99.90;;;;;;5011637;28;20189;-67
2022/01/04 08:46:14;;;;;;;9.80;9.10;;;7.70;99.90;;;;;;5013155;28;20172;-68
2022/01/04 08:48:40;;;;;;;10.43;9.63;;;7.80;99.90;;;;;;5013486;28;20510;-67
2022/01/04 08:51:06;;;;;;;9.87;9.07;;;7.80;99.90;;;;;;5013305;28;20199;-67
2022/01/04 08:53:31;;;;;;;10.30;9.40;;;7.90;99.90;;;;;;5011633;28;20271;-67
2022/01/04 08:56:01;;;;;;;9.87;9.27;;;8.00;99.90;;;;;;5012842;28;20212;-67
2022/01/04 08:58:27;;;;;;;10.23;9.43;;;8.00;99.90;;;;;;5011127;28;20187;-66
2022/01/04 09:00:53;;;;;;;10.23;9.23;;;8.00;99.90;;;;;;5012317;28;20319;-66
2022/01/04 09:03:19;;;;;;;9.77;8.97;;;8.00;99.90;;;;;;5011707;28;20644;-66
2022/01/04 09:05:44;;;;;;;10.57;9.73;;;8.00;99.90;;;;;;5012857;28;20218;-67
2022/01/04 09:08:10;;;;;;;13.27;11.80;;;8.00;99.90;;;;;;5012184;28;20180;-67
2022/01/04 09:10:36;;;;;;;14.27;12.77;;;8.00;99.90;;;;;;5012233;28;20180;-65
2022/01/04 09:13:09;;;;;;;12.97;11.73;;;8.00;99.90;;;;;;5010763;28;20172;-66
2022/01/04 09:20:53;;;;;;;10.80;10.00;;;8.00;99.90;;;;;;5012089;28;20243;-66
2022/01/04 09:23:20;;;;;;;11.83;10.73;;;8.10;99.90;;;;;;5011095;28;20177;-66
2022/01/04 09:25:51;;;;;;;11.00;10.00;;;8.10;99.90;;;;;;5012261;28;20219;-66
2022/01/04 09:28:19;;;;;;;10.00;9.20;;;8.10;99.90;;;;;;5011905;28;20171;-66
2022/01/04 09:30:46;;;;;;;8.93;8.23;;;8.20;99.90;;;;;;4992372;28;20203;-66
2022/01/04 09:33:12;;;;;;;11.53;10.07;;;8.30;99.90;;;;;;4991976;28;20177;-66
2022/01/04 09:35:39;;;;;;;9.50;8.70;;;8.20;99.90;;;;;;5010919;28;20566;-66
2022/01/04 09:38:05;;;;;;;9.57;8.77;;;8.20;99.90;;;;;;5011809;28;20168;-66
2022/01/04 09:40:35;;;;;;;9.07;8.27;;;8.10;99.90;;;;;;5009791;28;20176;-66
2022/01/04 09:43:04;;;;;;;10.03;9.23;;;8.20;99.90;;;;;;5011461;28;20184;-66
2022/01/04 09:45:30;;;;;;;9.33;8.67;;;8.20;99.90;;;;;;5011061;28;20290;-66
2022/01/04 09:47:56;;;;;;;10.07;9.23;;;8.30;99.90;;;;;;5011956;28;20259;-66
2022/01/04 09:50:22;;;;;;;9.20;8.47;;;8.30;99.90;;;;;;5011577;28;20180;-66
2022/01/04 09:52:49;;;;;;;9.43;8.73;;;8.30;99.90;;;;;;5010273;28;20183;-66
2022/01/04 09:55:16;;;;;;;10.23;9.50;;;8.30;99.90;;;;;;5009684;28;20231;-66
2022/01/04 09:57:46;;;;;;;9.87;9.17;;;8.30;99.90;;;;;;4995072;28;20201;-66
2022/01/04 10:00:14;;;;;;;10.60;9.57;;;8.30;99.90;;;;;;4990507;28;20267;-66
2022/01/04 10:02:45;;;;;;;10.17;9.03;;;8.40;99.90;;;;;;5001823;28;20222;-66
2022/01/04 10:05:16;;;;;;;9.23;8.47;;;8.40;99.90;;;;;;5011405;28;20597;-66
2022/01/04 10:07:43;;;;;;;13.57;9.33;;;8.40;99.90;;;;;;5011263;28;20260;-66
2022/01/04 10:10:11;;;;;;;9.73;8.83;;;8.40;99.90;;;;;;5011534;28;20644;-66
2022/01/04 10:12:50;;;;;;;9.30;8.67;;;8.40;99.90;;;;;;5009430;28;20180;-67
2022/01/04 10:15:30;;;;;;;9.93;9.13;;;8.30;99.90;;;;;;5011943;28;20196;-67
2022/01/04 10:17:56;;;;;;;9.87;9.17;;;8.20;99.90;;;;;;5011248;28;20180;-65
2022/01/04 10:20:22;;;;;;;9.80;9.00;;;8.20;99.90;;;;;;5011427;28;20610;-65
2022/01/04 10:22:50;;;;;;;9.13;8.43;;;8.20;99.90;;;;;;5010152;28;20207;-65
2022/01/04 10:25:19;;;;;;;8.93;8.20;;;8.30;99.90;;;;;;5011004;28;20200;-65
2022/01/04 10:27:53;;;;;;;9.13;8.33;;;8.20;99.90;;;;;;5011276;28;20172;-66
2022/01/04 10:30:28;;;;;;;8.17;7.50;;;8.10;99.90;;;;;;5011016;28;20430;-66
2022/01/04 10:33:00;;;;;;;9.03;8.33;;;8.10;99.90;;;;;;5010984;28;20647;-66
2022/01/04 10:35:45;;;;;;;8.67;8.07;;;8.10;99.90;;;;;;5009862;28;20685;-67
2022/01/04 10:38:21;;;;;;;9.33;8.43;;;8.20;99.90;;;;;;5010960;28;20180;-67
2022/01/04 10:40:57;;;;;;;8.93;8.23;;;8.20;99.90;;;;;;5011235;28;20172;-67
2022/01/04 10:43:25;;;;;;;11.03;10.13;;;8.20;99.90;;;;;;5010106;28;20280;-69
2022/01/04 10:45:51;;;;;;;10.23;9.50;;;8.20;99.90;;;;;;5011247;28;20672;-67
2022/01/04 10:48:19;;;;;;;10.40;9.67;;;8.10;99.90;;;;;;5009592;28;20214;-67
2022/01/04 10:50:59;;;;;;;10.87;9.77;;;8.10;99.90;;;;;;5011085;28;20177;-67
2022/01/04 10:53:34;;;;;;;11.03;10.23;;;8.10;99.90;;;;;;5010864;28;20180;-67
2022/01/04 10:56:03;;;;;;;10.87;10.17;;;8.00;99.90;;;;;;5012790;28;20210;-65
2022/01/04 10:58:34;;;;;;;10.37;9.77;;;7.90;99.90;;;;;;5014762;28;20230;-67
2022/01/04 11:01:09;;;;;;;10.23;9.33;;;8.00;99.90;;;;;;5013215;28;20212;-67
2022/01/04 11:03:37;;;;;;;9.10;8.53;;;8.00;99.90;;;;;;5014120;28;20176;-67
2022/01/04 11:06:10;;;;;;;8.03;7.63;;;8.00;99.90;;;;;;5014379;28;20204;-66
2022/01/04 11:08:37;;;;;;;10.20;9.50;;;8.00;99.90;;;;;;5014621;28;20184;-67
2022/01/04 11:11:04;;;;;;;10.30;9.73;;;8.00;99.90;;;;;;5014555;28;20172;-67
2022/01/04 11:13:30;;;;;;;10.10;9.33;;;7.90;99.90;;;;;;5013069;28;20188;-67
2022/01/04 11:15:56;;;;;;;10.07;9.37;;;7.90;99.90;;;;;;5014450;28;20196;-67
2022/01/04 11:18:23;;;;;;;10.80;10.20;;;7.90;99.90;;;;;;5014227;28;20184;-65
2022/01/04 11:20:50;;;;;;;9.03;8.33;;;7.90;99.90;;;;;;5014359;28;20218;-65
2022/01/04 11:23:16;;;;;;;10.10;9.60;;;7.90;99.90;;;;;;5012640;28;20554;-65
2022/01/04 11:25:45;;;;;;;11.00;10.07;;;7.90;99.90;;;;;;5014264;28;20226;-66
2022/01/04 11:28:14;;;;;;;10.33;9.53;;;7.90;99.90;;;;;;5014339;28;20648;-66
2022/01/04 11:30:46;;;;;;;9.30;8.47;;;7.90;99.90;;;;;;5013743;28;20664;-66
2022/01/04 11:33:28;;;;;;;8.50;8.00;;;7.80;99.90;;;;;;5012544;28;20263;-66
2022/01/04 11:35:55;;;;;;;8.57;8.07;;;7.80;99.90;;;;;;5013897;28;20211;-66
2022/01/04 11:38:35;;;;;;;9.23;8.53;;;7.90;99.90;;;;;;5014166;28;20538;-66
2022/01/04 11:41:02;;;;;;;9.10;8.30;;;7.90;99.90;;;;;;5014046;28;20230;-67
2022/01/04 11:43:38;;;;;;;10.17;9.17;;;7.80;99.90;;;;;;5013761;28;20207;-66
2022/01/04 11:46:04;;;;;;;10.33;9.43;;;7.90;99.90;;;;;;5013513;28;20218;-66
2022/01/04 11:48:41;;;;;;;27.87;17.73;;;7.90;99.90;;;;;;5013927;28;20258;-66
2022/01/04 11:51:30;;;;;;;12.43;9.57;;;8.00;99.90;;;;;;5012743;28;20226;-66
2022/01/04 11:54:30;;;;;;;9.00;8.20;;;8.20;99.90;;;;;;5009988;28;20192;-66
2022/01/04 11:57:00;;;;;;;8.80;8.20;;;8.20;99.90;;;;;;5001884;28;20255;-67
2022/01/04 11:59:32;;;;;;;10.97;9.70;;;8.20;99.90;;;;;;5013576;28;20188;-65
2022/01/04 12:02:23;;;;;;;10.17;9.37;;;8.30;99.90;;;;;;5013489;28;20200;-65
2022/01/04 12:04:52;;;;;;;19.20;13.70;;;8.30;99.90;;;;;;5013124;28;20231;-66
2022/01/04 12:07:41;;;;;;;12.57;11.10;;;8.40;99.90;;;;;;5012035;28;20188;-65
2022/01/04 12:10:22;;;;;;;14.47;11.70;;;8.40;99.90;;;;;;5013385;28;20191;-66
2022/01/04 12:13:10;;;;;;;11.57;10.57;;;8.40;99.90;;;;;;5013003;28;20184;-65
2022/01/04 12:15:36;;;;;;;14.77;12.47;;;8.40;99.90;;;;;;5013580;28;20254;-65
2022/01/04 12:18:23;;;;;;;11.70;10.60;;;8.40;99.90;;;;;;5012994;28;20184;-67
2022/01/04 12:20:56;;;;;;;11.37;10.30;;;8.40;99.90;;;;;;5014214;28;20584;-66
2022/01/04 12:23:31;;;;;;;12.27;11.27;;;8.40;99.90;;;;;;5012224;28;20527;-67
2022/01/04 12:26:07;;;;;;;15.03;13.40;;;8.50;99.90;;;;;;5013550;28;20194;-67
2022/01/04 12:28:37;;;;;;;13.27;11.53;;;8.50;99.90;;;;;;5012472;28;20180;-67
2022/01/04 12:31:18;;;;;;;13.00;11.80;;;8.50;99.90;;;;;;5013028;28;20203;-68
2022/01/04 12:33:50;;;;;;;13.43;12.13;;;8.50;99.90;;;;;;5012360;28;20274;-67
2022/01/04 12:36:23;;;;;;;13.60;11.87;;;8.50;99.90;;;;;;5012921;28;20211;-67
2022/01/04 12:38:50;;;;;;;11.93;10.70;;;8.50;99.90;;;;;;5012837;28;20585;-67
2022/01/04 12:41:17;;;;;;;15.57;13.93;;;8.50;99.90;;;;;;5012717;28;20310;-68
2022/01/04 12:43:47;;;;;;;16.60;14.80;;;8.50;99.90;;;;;;5012151;28;20270;-68
2022/01/04 12:46:14;;;;;;;16.40;14.63;;;8.60;99.90;;;;;;5012766;28;20176;-68
2022/01/04 12:48:51;;;;;;;17.23;15.17;;;8.60;99.90;;;;;;5012829;28;20659;-67
2022/01/04 12:51:44;;;;;;;15.57;13.87;;;8.60;99.90;;;;;;5012605;28;20237;-68
2022/01/04 12:57:00;;;;;;;16.60;15.00;;;8.60;99.90;;;;;;5033996;22;20708;-65
2022/01/04 12:59:26;;;;;;;14.47;13.03;;;8.70;99.90;;;;;;5012715;28;20172;-65
2022/01/04 13:01:55;;;;;;;14.03;12.63;;;8.70;99.90;;;;;;5012262;28;20294;-65
2022/01/04 13:04:34;;;;;;;13.50;12.10;;;8.80;99.90;;;;;;5011078;28;20179;-64
2022/01/04 13:07:02;;;;;;;12.87;11.77;;;8.90;99.90;;;;;;5012214;28;20554;-65
2022/01/04 13:09:28;;;;;;;14.20;12.80;;;8.90;99.90;;;;;;5012813;28;20176;-64